sensor_id;sensor_type;location;lat;lon;timestamp;temperature;humidity
4922;DHT22;16625;53.624;10.106;2024-03-08T07:45:34;0.70;99.90
4922;DHT22;16625;53.624;10.106;2024-03-08T07:48:02;3.10;99.90
4922;DHT22;16625;53.624;10.106;2024-03-08T07:50:35;1.00;99.90
4922;DHT22;16625;53.624;10.106;2024-03-08T07:53:03;2.60;99.90
4922;DHT22;16625;53.624;10.106;2024-03-08T07:55:32;-0.60;99.90
4922;DHT22;16625;53.624;10.106;2024-03-08T07:58:00;3.40;99.90
4922;DHT22;16625;53.624;10.106;2024-03-08T08:00:28;2.50;99.90
4922;DHT22;16625;53.624;10.106;2024-03-08T08:02:58;3.30;99.90
4922;DHT22;16625;53.624;10.106;2024-03-08T08:05:26;3.80;99.90
4922;DHT22;16625;53.624;10.106;2024-03-08T08:07:53;2.60;99.90
4922;DHT22;16625;53.624;10.106;2024-03-08T08:10:21;2.80;99.90
4922;DHT22;16625;53.624;10.106;2024-03-08T08:12:50;1.70;99.90
4922;DHT22;16625;53.624;10.106;2024-03-08T08:15:17;3.40;99.90
4922;DHT22;16625;53.624;10.106;2024-03-08T08:17:45;4.60;99.90
4922;DHT22;16625;53.624;10.106;2024-03-08T08:20:14;4.70;99.90
4922;DHT22;16625;53.624;10.106;2024-03-08T08:22:44;4.90;99.90
4922;DHT22;16625;53.624;10.106;2024-03-08T08:25:11;2.20;99.90
4922;DHT22;16625;53.624;10.106;2024-03-08T08:27:38;4.70;99.90
4922;DHT22;16625;53.624;10.106;2024-03-08T08:30:06;4.50;99.90
4922;DHT22;16625;53.624;10.106;2024-03-08T08:32:34;2.60;99.90
4922;DHT22;16625;53.624;10.106;2024-03-08T08:35:05;4.60;99.90
4922;DHT22;16625;53.624;10.106;2024-03-08T08:37:35;2.80;46.70
4922;DHT22;16625;53.624;10.106;2024-03-08T08:40:03;2.90;1.00
4922;DHT22;16625;53.624;10.106;2024-03-08T08:42:34;2.90;1.00
4922;DHT22;16625;53.624;10.106;2024-03-08T08:45:02;3.10;1.00
4922;DHT22;16625;53.624;10.106;2024-03-08T08:47:29;3.10;99.90
4922;DHT22;16625;53.624;10.106;2024-03-08T08:49:56;3.20;1.00
4922;DHT22;16625;53.624;10.106;2024-03-08T08:52:23;3.80;1.00
4922;DHT22;16625;53.624;10.106;2024-03-08T08:54:57;4.90;99.90
4922;DHT22;16625;53.624;10.106;2024-03-08T08:57:25;4.70;4.50
4922;DHT22;16625;53.624;10.106;2024-03-08T09:03:13;3.70;99.90
4922;DHT22;16625;53.624;10.106;2024-03-08T09:06:02;4.00;74.10
4922;DHT22;16625;53.624;10.106;2024-03-08T09:31:45;4.70;99.90
4922;DHT22;16625;53.624;10.106;2024-03-08T09:34:17;4.70;99.90
4922;DHT22;16625;53.624;10.106;2024-03-08T09:36:44;7.40;99.90
4922;DHT22;16625;53.624;10.106;2024-03-08T10:55:53;6.70;99.90
4922;DHT22;16625;53.624;10.106;2024-03-08T10:58:40;8.10;99.90
4922;DHT22;16625;53.624;10.106;2024-03-08T11:01:35;8.80;99.90
4922;DHT22;16625;53.624;10.106;2024-03-08T11:04:17;7.20;99.90
4922;DHT22;16625;53.624;10.106;2024-03-08T11:07:02;8.10;94.20
4922;DHT22;16625;53.624;10.106;2024-03-08T11:09:34;6.80;1.00
4922;DHT22;16625;53.624;10.106;2024-03-08T11:12:25;7.00;1.00
4922;DHT22;16625;53.624;10.106;2024-03-08T11:39:40;7.30;99.90
4922;DHT22;16625;53.624;10.106;2024-03-08T11:42:31;8.50;99.90
4922;DHT22;16625;53.624;10.106;2024-03-08T11:45:08;7.50;99.90
4922;DHT22;16625;53.624;10.106;2024-03-08T11:47:46;7.20;99.90
4922;DHT22;16625;53.624;10.106;2024-03-08T11:50:41;9.30;99.90
4922;DHT22;16625;53.624;10.106;2024-03-08T11:53:18;6.10;20.50
4922;DHT22;16625;53.624;10.106;2024-03-08T11:55:48;8.50;6.30
4922;DHT22;16625;53.624;10.106;2024-03-08T11:58:15;9.90;10.60
4922;DHT22;16625;53.624;10.106;2024-03-08T12:00:43;9.10;1.00
4922;DHT22;16625;53.624;10.106;2024-03-08T12:03:12;8.70;1.00
4922;DHT22;16625;53.624;10.106;2024-03-08T12:05:39;9.30;1.00
4922;DHT22;16625;53.624;10.106;2024-03-08T12:23:54;7.70;99.90
4922;DHT22;16625;53.624;10.106;2024-03-08T12:26:30;8.80;99.90
4922;DHT22;16625;53.624;10.106;2024-03-08T12:29:17;10.10;99.90
4922;DHT22;16625;53.624;10.106;2024-03-08T12:31:59;9.70;99.90
4922;DHT22;16625;53.624;10.106;2024-03-08T16:50:07;6.50;99.90
4922;DHT22;16625;53.624;10.106;2024-03-08T16:57:44;6.20;99.90
4922;DHT22;16625;53.624;10.106;2024-03-08T17:05:38;6.00;99.90
4922;DHT22;16625;53.624;10.106;2024-03-08T17:08:10;4.80;99.90
4922;DHT22;16625;53.624;10.106;2024-03-08T17:10:39;5.30;99.90
4922;DHT22;16625;53.624;10.106;2024-03-08T17:13:07;4.40;99.90
4922;DHT22;16625;53.624;10.106;2024-03-08T17:15:36;7.20;99.90
4922;DHT22;16625;53.624;10.106;2024-03-08T17:18:03;5.60;99.90
4922;DHT22;16625;53.624;10.106;2024-03-08T17:20:35;5.70;99.90
4922;DHT22;16625;53.624;10.106;2024-03-08T17:23:07;5.60;99.90
4922;DHT22;16625;53.624;10.106;2024-03-08T17:25:34;5.60;99.90
4922;DHT22;16625;53.624;10.106;2024-03-08T17:28:03;7.10;99.90
4922;DHT22;16625;53.624;10.106;2024-03-08T17:30:33;5.40;99.90
4922;DHT22;16625;53.624;10.106;2024-03-08T17:33:04;5.40;99.90
4922;DHT22;16625;53.624;10.106;2024-03-08T17:35:35;5.30;99.90
4922;DHT22;16625;53.624;10.106;2024-03-08T17:38:06;5.50;99.90
4922;DHT22;16625;53.624;10.106;2024-03-08T17:40:36;5.70;99.90
4922;DHT22;16625;53.624;10.106;2024-03-08T17:43:07;5.30;99.90
4922;DHT22;16625;53.624;10.106;2024-03-08T17:45:37;6.80;99.90
4922;DHT22;16625;53.624;10.106;2024-03-08T17:48:07;5.20;99.90
4922;DHT22;16625;53.624;10.106;2024-03-08T17:50:38;5.20;99.90
4922;DHT22;16625;53.624;10.106;2024-03-08T17:53:07;6.50;99.90
4922;DHT22;16625;53.624;10.106;2024-03-08T17:55:34;5.00;99.90
4922;DHT22;16625;53.624;10.106;2024-03-08T17:58:03;5.10;99.90
4922;DHT22;16625;53.624;10.106;2024-03-08T18:00:31;4.90;99.90
4922;DHT22;16625;53.624;10.106;2024-03-08T18:03:01;6.10;99.90
4922;DHT22;16625;53.624;10.106;2024-03-08T18:05:31;5.70;99.90
4922;DHT22;16625;53.624;10.106;2024-03-08T18:07:58;6.00;99.90
4922;DHT22;16625;53.624;10.106;2024-03-08T18:10:28;4.50;99.90
4922;DHT22;16625;53.624;10.106;2024-03-08T18:12:57;5.80;99.90
4922;DHT22;16625;53.624;10.106;2024-03-08T18:15:25;5.10;99.90
4922;DHT22;16625;53.624;10.106;2024-03-08T18:17:52;4.40;1.00
4922;DHT22;16625;53.624;10.106;2024-03-08T18:20:20;4.70;1.00
4922;DHT22;16625;53.624;10.106;2024-03-08T18:22:54;5.10;1.00
4922;DHT22;16625;53.624;10.106;2024-03-08T18:25:22;4.20;1.00
4922;DHT22;16625;53.624;10.106;2024-03-08T18:27:52;4.20;1.00
4922;DHT22;16625;53.624;10.106;2024-03-08T18:30:19;5.10;1.00
4922;DHT22;16625;53.624;10.106;2024-03-08T18:32:48;4.10;1.00
4922;DHT22;16625;53.624;10.106;2024-03-08T18:35:15;4.10;1.00
4922;DHT22;16625;53.624;10.106;2024-03-08T18:37:43;4.10;1.00
4922;DHT22;16625;53.624;10.106;2024-03-08T18:40:13;4.10;1.00
4922;DHT22;16625;53.624;10.106;2024-03-08T18:42:42;4.00;1.00
4922;DHT22;16625;53.624;10.106;2024-03-08T18:45:12;3.90;1.00
4922;DHT22;16625;53.624;10.106;2024-03-08T18:47:41;3.80;1.00
4922;DHT22;16625;53.624;10.106;2024-03-08T18:50:10;5.40;1.00
4922;DHT22;16625;53.624;10.106;2024-03-08T18:52:39;3.60;1.00
4922;DHT22;16625;53.624;10.106;2024-03-08T18:55:07;4.90;1.00
4922;DHT22;16625;53.624;10.106;2024-03-08T18:57:36;3.50;1.00
4922;DHT22;16625;53.624;10.106;2024-03-08T19:00:07;3.50;1.00
4922;DHT22;16625;53.624;10.106;2024-03-08T19:02:41;3.50;1.00
4922;DHT22;16625;53.624;10.106;2024-03-08T19:05:08;3.50;1.00
4922;DHT22;16625;53.624;10.106;2024-03-08T19:07:41;3.50;1.00
4922;DHT22;16625;53.624;10.106;2024-03-08T19:10:09;5.10;1.00
4922;DHT22;16625;53.624;10.106;2024-03-08T19:12:39;3.50;1.00
4922;DHT22;16625;53.624;10.106;2024-03-08T19:15:08;3.40;1.00
4922;DHT22;16625;53.624;10.106;2024-03-08T19:17:43;3.50;1.00
4922;DHT22;16625;53.624;10.106;2024-03-08T19:20:11;3.50;1.00
4922;DHT22;16625;53.624;10.106;2024-03-08T19:22:44;5.40;1.00
4922;DHT22;16625;53.624;10.106;2024-03-08T19:25:11;4.10;1.00
4922;DHT22;16625;53.624;10.106;2024-03-08T19:27:39;3.60;1.00
4922;DHT22;16625;53.624;10.106;2024-03-08T19:30:08;3.60;1.00
4922;DHT22;16625;53.624;10.106;2024-03-08T19:32:35;3.60;1.00
4922;DHT22;16625;53.624;10.106;2024-03-08T19:35:07;3.60;1.00
4922;DHT22;16625;53.624;10.106;2024-03-08T19:37:37;3.70;1.00
4922;DHT22;16625;53.624;10.106;2024-03-08T19:40:08;3.70;1.00
4922;DHT22;16625;53.624;10.106;2024-03-08T19:42:40;3.70;1.00
4922;DHT22;16625;53.624;10.106;2024-03-08T19:45:11;3.70;1.00
4922;DHT22;16625;53.624;10.106;2024-03-08T19:47:38;3.70;1.00
4922;DHT22;16625;53.624;10.106;2024-03-08T19:50:10;3.70;1.00
4922;DHT22;16625;53.624;10.106;2024-03-08T19:52:44;3.70;1.00
4922;DHT22;16625;53.624;10.106;2024-03-08T19:55:12;3.60;1.00
4922;DHT22;16625;53.624;10.106;2024-03-08T19:57:41;5.70;1.00
4922;DHT22;16625;53.624;10.106;2024-03-08T20:00:12;3.50;1.00
4922;DHT22;16625;53.624;10.106;2024-03-08T20:02:47;3.60;1.00
4922;DHT22;16625;53.624;10.106;2024-03-08T20:05:16;3.60;1.00
4922;DHT22;16625;53.624;10.106;2024-03-08T20:07:46;3.60;1.00
4922;DHT22;16625;53.624;10.106;2024-03-08T20:10:18;3.60;1.00
4922;DHT22;16625;53.624;10.106;2024-03-08T20:12:46;3.60;1.00
4922;DHT22;16625;53.624;10.106;2024-03-08T20:15:15;3.70;1.00
4922;DHT22;16625;53.624;10.106;2024-03-08T20:17:43;3.70;1.00
4922;DHT22;16625;53.624;10.106;2024-03-08T20:20:12;5.20;1.00
4922;DHT22;16625;53.624;10.106;2024-03-08T20:22:42;5.30;1.00
4922;DHT22;16625;53.624;10.106;2024-03-08T20:25:11;3.60;1.00
4922;DHT22;16625;53.624;10.106;2024-03-08T20:27:42;4.80;1.00
4922;DHT22;16625;53.624;10.106;2024-03-08T20:30:13;5.30;1.00
4922;DHT22;16625;53.624;10.106;2024-03-08T20:32:47;3.50;1.00
4922;DHT22;16625;53.624;10.106;2024-03-08T20:35:15;5.30;1.00
4922;DHT22;16625;53.624;10.106;2024-03-08T20:37:48;3.40;1.00
4922;DHT22;16625;53.624;10.106;2024-03-08T20:40:15;4.80;1.00
4922;DHT22;16625;53.624;10.106;2024-03-08T20:42:49;3.50;1.00
4922;DHT22;16625;53.624;10.106;2024-03-08T20:45:16;5.30;1.00
4922;DHT22;16625;53.624;10.106;2024-03-08T20:47:46;3.50;1.00
4922;DHT22;16625;53.624;10.106;2024-03-08T20:50:14;3.40;1.00
4922;DHT22;16625;53.624;10.106;2024-03-08T20:52:44;3.50;1.00
4922;DHT22;16625;53.624;10.106;2024-03-08T20:55:13;3.40;1.00
4922;DHT22;16625;53.624;10.106;2024-03-08T20:57:41;5.00;1.00
4922;DHT22;16625;53.624;10.106;2024-03-08T21:00:12;3.90;1.00
4922;DHT22;16625;53.624;10.106;2024-03-08T21:02:46;3.50;1.00
4922;DHT22;16625;53.624;10.106;2024-03-08T21:05:13;3.50;1.00
4922;DHT22;16625;53.624;10.106;2024-03-08T21:07:43;3.40;1.00
4922;DHT22;16625;53.624;10.106;2024-03-08T21:10:12;4.40;1.00
4922;DHT22;16625;53.624;10.106;2024-03-08T21:12:40;3.40;1.00
4922;DHT22;16625;53.624;10.106;2024-03-08T21:15:09;5.50;1.00
4922;DHT22;16625;53.624;10.106;2024-03-08T21:17:38;3.40;1.00
4922;DHT22;16625;53.624;10.106;2024-03-08T21:20:06;3.60;1.00
4922;DHT22;16625;53.624;10.106;2024-03-08T21:22:37;3.40;1.00
4922;DHT22;16625;53.624;10.106;2024-03-08T21:25:06;3.40;1.00
4922;DHT22;16625;53.624;10.106;2024-03-08T21:27:37;3.30;1.00
4922;DHT22;16625;53.624;10.106;2024-03-08T21:30:06;4.20;1.00
4922;DHT22;16625;53.624;10.106;2024-03-08T21:32:36;3.30;1.00
4922;DHT22;16625;53.624;10.106;2024-03-08T21:35:04;3.20;1.00
4922;DHT22;16625;53.624;10.106;2024-03-08T21:37:33;3.30;1.00
4922;DHT22;16625;53.624;10.106;2024-03-08T21:39:59;3.30;1.00
4922;DHT22;16625;53.624;10.106;2024-03-08T21:42:26;3.30;1.00
4922;DHT22;16625;53.624;10.106;2024-03-08T21:44:55;3.30;1.00
4922;DHT22;16625;53.624;10.106;2024-03-08T21:47:23;3.20;1.00
4922;DHT22;16625;53.624;10.106;2024-03-08T21:49:50;3.30;1.00
4922;DHT22;16625;53.624;10.106;2024-03-08T21:52:20;4.80;1.00
4922;DHT22;16625;53.624;10.106;2024-03-08T21:54:48;3.20;1.00
4922;DHT22;16625;53.624;10.106;2024-03-08T21:57:15;3.20;1.00
4922;DHT22;16625;53.624;10.106;2024-03-08T21:59:44;4.50;1.00
4922;DHT22;16625;53.624;10.106;2024-03-08T22:02:13;5.20;1.00
4922;DHT22;16625;53.624;10.106;2024-03-08T22:04:40;3.20;1.00
4922;DHT22;16625;53.624;10.106;2024-03-08T22:07:08;3.10;1.00
4922;DHT22;16625;53.624;10.106;2024-03-08T22:09:35;3.20;1.00
4922;DHT22;16625;53.624;10.106;2024-03-08T22:12:02;3.20;1.00
4922;DHT22;16625;53.624;10.106;2024-03-08T22:14:29;3.20;1.00
4922;DHT22;16625;53.624;10.106;2024-03-08T22:16:56;3.20;1.00
4922;DHT22;16625;53.624;10.106;2024-03-08T22:19:25;4.20;1.00
4922;DHT22;16625;53.624;10.106;2024-03-08T22:21:51;3.20;1.00
4922;DHT22;16625;53.624;10.106;2024-03-08T22:24:17;5.10;1.00
4922;DHT22;16625;53.624;10.106;2024-03-08T22:26:44;4.80;1.00
4922;DHT22;16625;53.624;10.106;2024-03-08T22:29:12;3.10;1.00
4922;DHT22;16625;53.624;10.106;2024-03-08T22:31:39;5.00;1.00
4922;DHT22;16625;53.624;10.106;2024-03-08T22:34:06;3.50;1.00
4922;DHT22;16625;53.624;10.106;2024-03-08T22:36:35;3.10;1.00
4922;DHT22;16625;53.624;10.106;2024-03-08T22:39:02;3.00;1.00
4922;DHT22;16625;53.624;10.106;2024-03-08T22:41:35;3.00;1.00
4922;DHT22;16625;53.624;10.106;2024-03-08T22:44:03;3.00;1.00
4922;DHT22;16625;53.624;10.106;2024-03-08T22:46:30;2.90;1.00
4922;DHT22;16625;53.624;10.106;2024-03-08T22:48:57;2.90;1.00
4922;DHT22;16625;53.624;10.106;2024-03-08T22:51:24;2.90;1.00
4922;DHT22;16625;53.624;10.106;2024-03-08T22:53:53;2.80;1.00
4922;DHT22;16625;53.624;10.106;2024-03-08T22:56:20;2.70;1.00
4922;DHT22;16625;53.624;10.106;2024-03-08T22:58:48;2.70;1.00
4922;DHT22;16625;53.624;10.106;2024-03-08T23:01:15;4.30;1.00
4922;DHT22;16625;53.624;10.106;2024-03-08T23:03:42;2.70;1.00
4922;DHT22;16625;53.624;10.106;2024-03-08T23:06:10;3.20;1.00
4922;DHT22;16625;53.624;10.106;2024-03-08T23:08:39;2.80;1.00
4922;DHT22;16625;53.624;10.106;2024-03-08T23:11:12;2.70;1.00
4922;DHT22;16625;53.624;10.106;2024-03-08T23:13:39;2.60;1.00
4922;DHT22;16625;53.624;10.106;2024-03-08T23:16:08;4.50;1.00
4922;DHT22;16625;53.624;10.106;2024-03-08T23:18:35;2.50;1.00
4922;DHT22;16625;53.624;10.106;2024-03-08T23:21:03;4.60;1.00
4922;DHT22;16625;53.624;10.106;2024-03-08T23:23:34;2.50;1.00
4922;DHT22;16625;53.624;10.106;2024-03-08T23:26:02;2.40;1.00
4922;DHT22;16625;53.624;10.106;2024-03-08T23:28:31;2.60;1.00
4922;DHT22;16625;53.624;10.106;2024-03-08T23:30:58;3.70;1.00
4922;DHT22;16625;53.624;10.106;2024-03-08T23:33:25;2.50;1.00
4922;DHT22;16625;53.624;10.106;2024-03-08T23:35:52;3.50;1.00
4922;DHT22;16625;53.624;10.106;2024-03-08T23:38:19;2.50;1.00
4922;DHT22;16625;53.624;10.106;2024-03-08T23:40:46;2.50;1.00
4922;DHT22;16625;53.624;10.106;2024-03-08T23:43:13;4.60;1.00
4922;DHT22;16625;53.624;10.106;2024-03-08T23:45:42;3.80;1.00
4922;DHT22;16625;53.624;10.106;2024-03-08T23:48:10;4.70;1.00
4922;DHT22;16625;53.624;10.106;2024-03-08T23:50:37;3.80;1.00
4922;DHT22;16625;53.624;10.106;2024-03-08T23:53:08;3.90;1.00
4922;DHT22;16625;53.624;10.106;2024-03-08T23:55:37;2.40;1.00
4922;DHT22;16625;53.624;10.106;2024-03-08T23:58:05;3.30;1.00
